»·PEaware :: AAL186 KSLC-KEGE

AAL186 :: KSLC-KEGE

FLIGHT INFORMATION

Flight Status: Arrived
Operator:
American Airlines
More flights by this operator :: More flights under this callsign
Pilot: Josh G. (4619)
Aircraft: AIRBUS A320
(A320)
More flights by this aircraft type
Origin: KSLC Salt Lake City Intl
United States
Destination: KEGE Eagle Co Regl
United States
More flights between these airports :: More routes between these airports
Route: +LEETZ6 EKR RLG
File this flight plan on PilotEdge
Remarks:
Altitude:
(Current/Filed)
29,000ft
Speed:
(Current/Filed)
320kts
Departed: 14-May-18 07:10 PM
Arrived: 14-May-18 08:00 PM
Distance/Time
Traveled:
242nm/0:50
Distance/Time
To Go:
Arrived

Flight Plot

Page will automatically refresh every two minutes.

Flight plan parsing failed; only flown route is shown


Map Options




Map Legend


Flown Route
Filed Route
Departure Airport
Arrival Airport
Navaid (VOR, NDB)
Fix

Horizontal Profiles

Position Reports

Time Latitude Longitude Heading Altitude Ground
Speed
14-May-18 18:55 40.789195 -111.978805 170 4236ft 0kts
14-May-18 18:56 40.789195 -111.978805 170 4236ft 0kts
14-May-18 18:57 40.789195 -111.978805 170 4236ft 0kts
14-May-18 18:58 40.789195 -111.978805 170 4236ft 0kts
14-May-18 18:59 40.789195 -111.978805 170 4236ft 0kts
14-May-18 19:00 40.789196 -111.978805 169 4236ft 0kts
14-May-18 19:01 40.789636 -111.979023 111 4236ft 2kts
14-May-18 19:02 40.789648 -111.979228 86 4236ft 0kts
14-May-18 19:03 40.789648 -111.979228 86 4236ft 0kts
14-May-18 19:04 40.789722 -111.977847 84 4236ft 0kts
14-May-18 19:05 40.790129 -111.977130 9 4236ft 10kts
14-May-18 19:06 40.794728 -111.977594 356 4236ft 18kts
14-May-18 19:07 40.799651 -111.978202 354 4236ft 17kts
14-May-18 19:08 40.804170 -111.978727 355 4236ft 15kts
14-May-18 19:09 40.807427 -111.978368 73 4236ft 7kts
14-May-18 19:10 40.794772 -111.975431 175 4236ft 151kts
14-May-18 19:11 40.750588 -111.994002 255 6718ft 202kts
14-May-18 19:12 40.761048 -112.075734 317 8744ft 270kts
14-May-18 19:13 40.816536 -112.145062 315 12036ft 283kts
14-May-18 19:14 40.888628 -112.180904 21 13985ft 337kts
14-May-18 19:15 40.931036 -112.075001 104 15084ft 381kts
14-May-18 19:16 40.904489 -111.940983 107 17128ft 394kts
14-May-18 19:17 40.876016 -111.800456 108 19186ft 403kts
14-May-18 19:18 40.846371 -111.655648 108 20780ft 419kts
14-May-18 19:19 40.815532 -111.506035 109 22341ft 430kts
14-May-18 19:20 40.782886 -111.352266 110 23788ft 440kts
14-May-18 19:21 40.747911 -111.198892 111 25057ft 450kts
14-May-18 19:22 40.711575 -111.039634 112 26172ft 462kts
14-May-18 19:23 40.673915 -110.875694 112 27099ft 476kts
14-May-18 19:24 40.635005 -110.707459 112 28092ft 485kts
14-May-18 19:25 40.595810 -110.539130 112 29222ft 482kts
14-May-18 19:26 40.556630 -110.372269 112 29191ft 482kts
14-May-18 19:27 40.521343 -110.205183 109 29111ft 485kts
14-May-18 19:28 40.489529 -110.036470 110 29108ft 472kts
14-May-18 19:29 40.458064 -109.871405 110 29107ft 473kts
14-May-18 19:30 40.425937 -109.704102 110 29112ft 474kts
14-May-18 19:31 40.393698 -109.537599 110 29121ft 474kts
14-May-18 19:32 40.361188 -109.371081 109 29120ft 474kts
14-May-18 19:33 40.329147 -109.208293 110 29109ft 472kts
14-May-18 19:34 40.296096 -109.041817 109 29058ft 475kts
14-May-18 19:35 40.262474 -108.873844 109 29062ft 483kts
14-May-18 19:36 40.228563 -108.705717 109 29139ft 487kts
14-May-18 19:37 40.193734 -108.534441 109 29206ft 487kts
14-May-18 19:38 40.158843 -108.364292 109 29209ft 486kts
14-May-18 19:39 40.125984 -108.205303 109 29177ft 484kts
14-May-18 19:40 40.091857 -108.041476 109 29151ft 483kts
14-May-18 19:41 40.065244 -107.870544 96 29150ft 491kts
14-May-18 19:42 40.058567 -107.693700 96 29133ft 491kts
14-May-18 19:43 40.051525 -107.517684 95 28239ft 489kts
14-May-18 19:44 40.044316 -107.344288 96 27353ft 488kts
14-May-18 19:45 40.037073 -107.175192 96 26464ft 466kts
14-May-18 19:46 40.029816 -107.012001 96 24884ft 448kts
14-May-18 19:47 40.022718 -106.856682 94 22429ft 402kts
14-May-18 19:48 40.016209 -106.718375 92 20079ft 372kts
14-May-18 19:49 40.006160 -106.588436 114 17480ft 353kts
14-May-18 19:50 39.930478 -106.543826 202 15153ft 311kts
14-May-18 19:51 39.857763 -106.577214 201 15001ft 269kts
14-May-18 19:52 39.788580 -106.607669 196 14661ft 283kts
14-May-18 19:53 39.717446 -106.634937 196 13600ft 254kts
14-May-18 19:54 39.679411 -106.699687 251 12305ft 223kts
14-May-18 19:55 39.664720 -106.769769 275 10836ft 195kts
14-May-18 19:56 39.671350 -106.832992 284 9566ft 160kts
14-May-18 19:57 39.675379 -106.889552 269 8441ft 154kts
14-May-18 19:58 39.663870 -106.945900 252 7574ft 157kts
14-May-18 19:59 39.641291 -106.928940 79 6592ft 157kts
14-May-18 20:00 39.642240 -106.910446 265 6553ft 15kts
14-May-18 20:01 39.640881 -106.912727 171 6553ft 0kts
14-May-18 20:02 39.640881 -106.912727 171 6553ft 0kts

Navigation Log

Ident Type
Flight plan parsing failed, navigation log unavailable